createdAt,value
2023-04-17T00:03:35.487Z,102549.31
2023-04-17T00:08:39.211Z,102556.56
2023-04-17T00:13:42.001Z,102562.63
2023-04-17T00:18:44.946Z,102561.03
2023-04-17T00:23:47.804Z,102562.81
2023-04-17T00:28:52.121Z,102550.88
2023-04-17T00:33:54.688Z,102561.47
2023-04-17T00:38:57.744Z,102554.38
2023-04-17T00:44:00.567Z,102560.72
2023-04-17T00:49:03.624Z,102556.28
2023-04-17T00:54:06.386Z,102557.38
2023-04-17T00:59:12.423Z,102558.19
2023-04-17T01:04:15.296Z,102554.47
2023-04-17T01:09:18.225Z,102553.72
2023-04-17T01:14:21.159Z,102555.59
2023-04-17T01:19:23.820Z,102557.84
2023-04-17T01:24:26.378Z,102560.50
2023-04-17T01:29:29.399Z,102554.44
2023-04-17T01:34:37.276Z,102561.22
2023-04-17T01:39:40.146Z,102569.50
2023-04-17T01:44:42.968Z,102568.84
2023-04-17T01:49:45.991Z,102569.63
2023-04-17T01:54:48.857Z,102573.97
2023-04-17T01:59:51.635Z,102580.28
2023-04-17T02:04:54.423Z,102578.41
2023-04-17T02:09:56.960Z,102583.78
2023-04-17T02:15:01.471Z,102584.34
2023-04-17T02:20:09.407Z,102592.22
2023-04-17T02:25:12.060Z,102596.28
2023-04-17T02:30:14.860Z,102594.25
2023-04-17T02:35:18.274Z,102599.09
2023-04-17T02:40:21.462Z,102595.41
2023-04-17T02:45:28.008Z,102605.78
2023-04-17T02:50:30.801Z,102616.38
2023-04-17T02:55:41.779Z,102615.94
2023-04-17T03:00:44.578Z,102615.19
2023-04-17T03:05:51.498Z,102616.59
2023-04-17T03:10:54.584Z,102620.44
2023-04-17T03:15:57.264Z,102605.50
2023-04-17T03:20:59.947Z,102620.03
2023-04-17T03:26:02.893Z,102613.06
2023-04-17T03:31:08.245Z,102602.78
2023-04-17T03:36:11.879Z,102616.03
2023-04-17T03:41:15.327Z,102623.28
2023-04-17T03:46:18.452Z,102624.53
2023-04-17T03:51:21.664Z,102627.59
2023-04-17T03:56:24.848Z,102625.97
2023-04-17T04:01:28.668Z,102635.13
2023-04-17T04:06:47.525Z,102631.28
2023-04-17T04:11:52.537Z,102632.75
2023-04-17T04:16:55.609Z,102649.97
2023-04-17T04:21:58.835Z,102641.16
2023-04-17T04:27:10.148Z,102646.69
2023-04-17T04:32:16.092Z,102640.38
2023-04-17T04:37:30.067Z,102642.75
2023-04-17T04:42:40.420Z,102639.06
2023-04-17T04:47:49.149Z,102649.44
2023-04-17T04:52:52.140Z,102658.97
2023-04-17T04:58:09.888Z,102663.22
2023-04-17T05:03:14.715Z,102664.19
2023-04-17T05:08:17.844Z,102658.41
2023-04-17T05:13:32.644Z,102654.25
2023-04-17T05:18:36.379Z,102650.44
2023-04-17T05:23:40.342Z,102662.69
2023-04-17T05:28:45.311Z,102661.78
2023-04-17T05:33:53.858Z,102667.38
2023-04-17T05:38:57.194Z,102677.00
2023-04-17T05:44:00.166Z,102674.31
2023-04-17T05:49:03.699Z,102679.09
2023-04-17T05:54:06.720Z,102672.03
2023-04-17T05:59:10.985Z,102679.28
2023-04-17T06:04:14.619Z,102677.34
2023-04-17T06:09:17.730Z,102693.16
2023-04-17T06:14:20.694Z,102682.88
2023-04-17T06:19:25.325Z,102687.81
2023-04-17T06:24:28.332Z,102688.91
2023-04-17T06:29:31.404Z,102699.41
2023-04-17T06:34:34.267Z,102684.41
2023-04-17T06:39:37.137Z,102691.44
2023-04-17T06:44:40.505Z,102685.84
2023-04-17T06:49:48.814Z,102687.00
2023-04-17T06:54:51.584Z,102693.03
2023-04-17T06:59:54.326Z,102678.63
2023-04-17T07:04:57.165Z,102697.53
2023-04-17T07:09:59.668Z,102691.28
2023-04-17T07:15:02.408Z,102691.44
2023-04-17T07:20:07.429Z,102686.34
2023-04-17T07:25:10.346Z,102689.75
2023-04-17T07:30:14.594Z,102683.97
2023-04-17T07:35:17.387Z,102684.03
2023-04-17T07:40:20.083Z,102671.13
2023-04-17T07:45:24.088Z,102694.22
2023-04-17T07:50:26.938Z,102688.91
2023-04-17T07:55:29.667Z,102672.16
2023-04-17T08:00:34.594Z,102684.69
2023-04-17T08:05:37.322Z,102669.47
2023-04-17T08:10:40.205Z,102675.91
2023-04-17T08:15:44.233Z,102674.72
2023-04-17T08:20:47.088Z,102675.66
2023-04-17T08:25:49.843Z,102670.38
2023-04-17T08:30:52.784Z,102688.38
2023-04-17T08:35:55.786Z,102666.91
2023-04-17T08:41:02.936Z,102673.81
2023-04-17T08:46:05.779Z,102664.44
2023-04-17T08:51:08.512Z,102665.72
2023-04-17T08:56:11.559Z,102680.19
2023-04-17T09:01:20.125Z,102653.97
2023-04-17T09:06:23.257Z,102668.81
2023-04-17T09:11:26.902Z,102655.03
2023-04-17T09:16:29.893Z,102648.69
2023-04-17T09:21:39.594Z,102650.81
2023-04-17T09:26:42.340Z,102648.97
2023-04-17T09:31:46.316Z,102664.53
2023-04-17T09:36:54.715Z,102653.19
2023-04-17T09:42:05.864Z,102663.47
2023-04-17T09:47:10.256Z,102662.69
2023-04-17T09:52:13.509Z,102649.97
2023-04-17T09:57:16.938Z,102647.63
2023-04-17T10:02:20.902Z,102640.72
2023-04-17T10:07:23.880Z,102637.41
2023-04-17T10:12:27.295Z,102637.94
2023-04-17T10:17:36.355Z,102633.34
2023-04-17T10:22:41.682Z,102613.16
2023-04-17T10:27:46.549Z,102612.59
2023-04-17T10:33:16.877Z,102607.63
2023-04-17T10:38:36.611Z,102626.59
2023-04-17T10:43:45.013Z,102605.16
2023-04-17T10:48:50.880Z,102614.31
2023-04-17T10:54:00.469Z,102620.75
2023-04-17T10:59:04.141Z,102605.25
2023-04-17T11:04:08.771Z,102607.75
2023-04-17T11:09:12.340Z,102605.19
2023-04-17T11:14:20.594Z,102594.84
2023-04-17T11:19:25.214Z,102594.97
2023-04-17T11:24:30.191Z,102587.78
2023-04-17T11:29:33.065Z,102580.97
2023-04-17T11:34:37.640Z,102573.78
2023-04-17T11:39:43.361Z,102567.09
2023-04-17T11:44:46.938Z,102567.75
2023-04-17T11:49:50.096Z,102563.03
2023-04-17T11:54:58.834Z,102577.91
2023-04-17T12:00:12.701Z,102553.03
2023-04-17T12:05:18.651Z,102553.19
2023-04-17T12:10:23.653Z,102549.09
2023-04-17T12:15:27.698Z,102545.63
2023-04-17T12:20:43.879Z,102543.34
2023-04-17T12:25:52.175Z,102549.34
2023-04-17T12:30:55.929Z,102538.47
2023-04-17T12:36:03.823Z,102539.00
2023-04-17T12:41:07.231Z,102537.44
2023-04-17T12:46:12.120Z,102543.06
2023-04-17T12:51:14.744Z,102541.97
2023-04-17T12:56:17.400Z,102533.75
2023-04-17T13:01:20.414Z,102527.28
2023-04-17T13:06:23.158Z,102527.09
2023-04-17T13:11:26.182Z,102540.09
2023-04-17T13:16:29.097Z,102509.72
2023-04-17T13:21:32.204Z,102520.56
2023-04-17T13:26:34.866Z,102513.81
2023-04-17T13:31:37.941Z,102516.25
2023-04-17T13:36:42.629Z,102506.16
2023-04-17T13:41:45.984Z,102508.22
2023-04-17T13:46:48.565Z,102519.16
2023-04-17T13:51:51.610Z,102500.19
2023-04-17T13:56:54.853Z,102494.00
2023-04-17T14:01:57.689Z,102482.75
2023-04-17T14:07:00.853Z,102487.38
2023-04-17T14:12:06.693Z,102485.56
2023-04-17T14:17:10.776Z,102482.88
2023-04-17T14:22:17.587Z,102482.09
2023-04-17T14:27:20.836Z,102487.09
2023-04-17T14:32:23.535Z,102478.16
2023-04-17T14:37:27.068Z,102481.59
2023-04-17T14:42:29.829Z,102491.25
2023-04-17T14:47:33.383Z,102480.53
2023-04-17T14:52:36.406Z,102473.31
2023-04-17T14:57:40.272Z,102477.53
2023-04-17T15:02:43.179Z,102483.13
2023-04-17T15:07:47.415Z,102471.38
2023-04-17T15:12:50.420Z,102479.03
2023-04-17T15:17:53.102Z,102479.06
2023-04-17T15:22:56.207Z,102482.09
2023-04-17T15:27:59.110Z,102482.13
2023-04-17T15:33:01.759Z,102495.47
2023-04-17T15:38:06.746Z,102495.31
2023-04-17T15:43:10.949Z,102499.31
2023-04-17T15:48:14.055Z,102502.13
2023-04-17T15:53:17.588Z,102502.09
2023-04-17T15:58:20.301Z,102502.72
2023-04-17T16:03:23.166Z,102496.59
2023-04-17T16:08:26.249Z,102501.09
2023-04-17T16:13:29.180Z,102507.31
2023-04-17T16:18:32.170Z,102511.06
2023-04-17T16:23:39.191Z,102510.47
2023-04-17T16:28:42.343Z,102516.03
2023-04-17T16:33:45.692Z,102528.06
2023-04-17T16:38:48.390Z,102531.47
2023-04-17T16:43:52.939Z,102541.28
2023-04-17T16:48:56.461Z,102537.59
2023-04-17T16:54:00.174Z,102540.59
2023-04-17T16:59:04.473Z,102542.59
2023-04-17T17:04:07.343Z,102541.00
2023-04-17T17:09:10.416Z,102548.50
2023-04-17T17:14:13.240Z,102556.28
2023-04-17T17:19:17.012Z,102551.19
2023-04-17T17:24:20.164Z,102564.25
2023-04-17T17:29:23.973Z,102563.28
2023-04-17T17:34:27.461Z,102560.28
2023-04-17T17:39:30.277Z,102559.56
2023-04-17T17:44:33.622Z,102565.56
2023-04-17T17:49:36.314Z,102571.66
2023-04-17T17:54:39.035Z,102562.53
2023-04-17T17:59:41.825Z,102568.06
2023-04-17T18:04:44.731Z,102545.25
2023-04-17T18:09:50.182Z,102550.03
2023-04-17T18:14:53.485Z,102548.63
2023-04-17T18:19:57.417Z,102555.53
2023-04-17T18:25:00.089Z,102553.16
2023-04-17T18:30:08.150Z,102558.16
2023-04-17T18:35:10.909Z,102540.66
2023-04-17T18:40:14.526Z,102550.75
2023-04-17T18:45:18.185Z,102540.88
2023-04-17T18:50:20.986Z,102535.63
2023-04-17T18:55:23.955Z,102535.16
2023-04-17T19:00:26.607Z,102542.72
2023-04-17T19:05:29.490Z,102530.28
2023-04-17T19:10:32.485Z,102538.31
2023-04-17T19:15:35.539Z,102548.88
2023-04-17T19:20:38.688Z,102545.41
2023-04-17T19:25:44.103Z,102541.34
2023-04-17T19:30:46.662Z,102546.63
2023-04-17T19:35:52.631Z,102532.81
2023-04-17T19:41:26.488Z,102538.88
2023-04-17T19:46:29.933Z,102534.19
2023-04-17T19:51:32.791Z,102512.56
2023-04-17T19:56:35.650Z,102527.97
2023-04-17T20:01:42.070Z,102519.59
2023-04-17T20:06:46.322Z,102518.50
2023-04-17T20:11:48.972Z,102521.94
2023-04-17T20:16:51.633Z,102517.16
2023-04-17T20:21:54.397Z,102522.75
2023-04-17T20:26:58.349Z,102526.16
2023-04-17T20:32:03.628Z,102530.63
2023-04-17T20:37:06.390Z,102525.81
2023-04-17T20:42:08.964Z,102522.28
2023-04-17T20:47:11.755Z,102533.22
2023-04-17T20:52:14.410Z,102520.34
2023-04-17T20:57:17.020Z,102525.44
2023-04-17T21:02:19.987Z,102526.50
2023-04-17T21:07:22.686Z,102516.22
2023-04-17T21:12:25.438Z,102522.53
2023-04-17T21:17:28.016Z,102522.53
2023-04-17T21:22:30.755Z,102509.81
2023-04-17T21:27:33.574Z,102500.47
2023-04-17T21:32:36.861Z,102493.16
2023-04-17T21:37:39.800Z,102497.53
2023-04-17T21:42:42.807Z,102513.47
2023-04-17T21:47:45.433Z,102494.59
2023-04-17T21:52:48.203Z,102523.38
2023-04-17T21:57:50.877Z,102507.38
2023-04-17T22:02:53.788Z,102508.34
2023-04-17T22:07:56.847Z,102504.97
2023-04-17T22:12:59.951Z,102502.66
2023-04-17T22:18:02.771Z,102510.97
2023-04-17T22:23:05.544Z,102504.94
2023-04-17T22:28:08.211Z,102504.09
2023-04-17T22:33:10.938Z,102511.34
2023-04-17T22:38:13.583Z,102514.75
2023-04-17T22:43:16.442Z,102501.16
2023-04-17T22:48:19.146Z,102501.75
2023-04-17T22:53:22.915Z,102500.66
2023-04-17T22:58:25.646Z,102505.59
2023-04-17T23:03:28.792Z,102503.66
2023-04-17T23:08:31.797Z,102498.19
2023-04-17T23:13:34.720Z,102502.19
2023-04-17T23:18:40.009Z,102497.91
2023-04-17T23:23:42.518Z,102502.88
2023-04-17T23:28:45.131Z,102507.91
2023-04-17T23:33:47.845Z,102497.03
2023-04-17T23:38:51.203Z,102505.78
2023-04-17T23:43:56.281Z,102492.97
2023-04-17T23:48:59.013Z,102505.50
2023-04-17T23:54:03.697Z,102499.97
2023-04-17T23:59:06.364Z,102495.75
